createdAt,value
2022-10-25T00:03:21.489Z,4.10
2022-10-25T00:08:24.369Z,3.00
2022-10-25T00:13:28.709Z,3.07
2022-10-25T00:18:31.614Z,3.93
2022-10-25T00:23:34.484Z,3.43
2022-10-25T00:28:39.313Z,3.50
2022-10-25T00:33:45.991Z,3.40
2022-10-25T00:38:49.249Z,2.90
2022-10-25T00:43:55.472Z,3.23
2022-10-25T00:49:03.282Z,3.13
2022-10-25T00:54:08.892Z,3.43
2022-10-25T00:59:17.061Z,2.53
2022-10-25T01:04:23.616Z,2.90
2022-10-25T01:09:28.524Z,2.73
2022-10-25T01:14:36.348Z,3.30
2022-10-25T01:19:58.344Z,3.63
2022-10-25T01:25:26.115Z,3.63
2022-10-25T01:30:46.095Z,3.00
2022-10-25T01:35:56.344Z,3.13
2022-10-25T01:41:12.741Z,3.13
2022-10-25T01:46:24.746Z,2.57
2022-10-25T01:51:29.733Z,3.00
2022-10-25T01:56:39.984Z,3.37
2022-10-25T02:02:00.607Z,2.80
2022-10-25T02:07:08.603Z,2.97
2022-10-25T02:12:20.074Z,3.23
2022-10-25T02:17:28.596Z,3.10
2022-10-25T02:22:35.827Z,3.17
2022-10-25T02:27:40.848Z,2.83
2022-10-25T02:32:45.347Z,3.63
2022-10-25T02:37:48.586Z,3.37
2022-10-25T02:42:52.053Z,3.27
2022-10-25T02:47:56.329Z,3.23
2022-10-25T02:52:59.236Z,2.50
2022-10-25T02:58:02.157Z,2.80
2022-10-25T03:03:06.442Z,3.30
2022-10-25T03:08:09.334Z,3.20
2022-10-25T03:13:12.300Z,2.83
2022-10-25T03:18:17.324Z,3.50
2022-10-25T03:23:20.327Z,2.90
2022-10-25T03:28:24.056Z,3.50
2022-10-25T03:33:28.406Z,2.87
2022-10-25T03:38:31.272Z,3.17
2022-10-25T03:43:34.236Z,3.00
2022-10-25T03:48:38.481Z,2.87
2022-10-25T03:53:41.391Z,2.67
2022-10-25T03:58:44.248Z,4.13
2022-10-25T04:03:48.474Z,3.00
2022-10-25T04:08:51.749Z,3.13
2022-10-25T04:13:54.609Z,3.50
2022-10-25T04:18:59.159Z,2.73
2022-10-25T04:24:04.339Z,3.27
2022-10-25T04:29:08.090Z,2.97
2022-10-25T04:34:12.798Z,2.60
2022-10-25T04:39:15.670Z,3.20
2022-10-25T04:44:18.707Z,3.23
2022-10-25T04:49:23.201Z,2.77
2022-10-25T04:54:26.100Z,2.70
2022-10-25T04:59:28.998Z,2.93
2022-10-25T05:04:33.410Z,2.80
2022-10-25T05:09:36.261Z,3.13
2022-10-25T05:14:39.194Z,3.30
2022-10-25T05:19:43.600Z,3.00
2022-10-25T05:24:46.587Z,3.07
2022-10-25T05:29:49.624Z,3.23
2022-10-25T05:34:53.953Z,3.30
2022-10-25T05:39:56.830Z,3.00
2022-10-25T05:44:59.975Z,3.23
2022-10-25T05:50:04.382Z,3.10
2022-10-25T05:55:08.009Z,3.30
2022-10-25T06:00:11.894Z,2.80
2022-10-25T06:05:16.308Z,2.90
2022-10-25T06:10:19.629Z,3.17
2022-10-25T06:15:22.575Z,3.00
2022-10-25T06:20:27.144Z,3.53
2022-10-25T06:25:30.170Z,4.07
2022-10-25T06:30:33.742Z,4.00
2022-10-25T06:35:38.081Z,4.33
2022-10-25T06:40:41.058Z,4.83
2022-10-25T06:45:44.022Z,4.30
2022-10-25T06:50:51.407Z,5.10
2022-10-25T06:55:55.326Z,4.60
2022-10-25T07:01:02.266Z,4.70
2022-10-25T07:06:08.259Z,5.07
2022-10-25T07:11:15.511Z,5.90
2022-10-25T07:16:20.042Z,4.90
2022-10-25T07:21:24.437Z,4.60
2022-10-25T07:26:30.310Z,4.50
2022-10-25T07:31:37.036Z,4.40
2022-10-25T07:36:41.411Z,4.77
2022-10-25T07:41:44.319Z,3.90
2022-10-25T07:46:47.343Z,4.23
2022-10-25T07:51:52.037Z,4.60
2022-10-25T07:56:55.088Z,4.63
2022-10-25T08:40:37.389Z,5.70
2022-10-25T08:45:49.227Z,5.17
2022-10-25T08:50:56.534Z,5.50
2022-10-25T08:56:16.201Z,5.07
2022-10-25T09:01:25.258Z,4.67
2022-10-25T09:06:37.593Z,4.77
2022-10-25T09:11:53.014Z,4.53
2022-10-25T09:17:05.281Z,4.90
2022-10-25T09:22:15.819Z,4.78
2022-10-25T09:27:28.828Z,5.63
2022-10-25T09:32:38.815Z,5.50
2022-10-25T09:37:46.780Z,5.38
2022-10-25T09:42:55.220Z,6.20
2022-10-25T09:48:07.578Z,6.40
2022-10-25T09:53:13.399Z,5.85
2022-10-25T09:58:22.685Z,6.55
2022-10-25T10:03:31.183Z,5.53
2022-10-25T10:08:36.835Z,5.85
2022-10-25T10:13:45.864Z,5.18
2022-10-25T10:18:48.918Z,5.18
2022-10-25T10:23:54.756Z,4.55
2022-10-25T10:29:15.371Z,4.18
2022-10-25T10:34:25.529Z,3.90
2022-10-25T10:39:28.539Z,4.90
2022-10-25T10:44:34.898Z,3.90
2022-10-25T10:49:40.147Z,4.00
2022-10-25T10:54:48.413Z,3.95
2022-10-25T10:59:57.231Z,4.25
2022-10-25T11:05:00.179Z,4.55
2022-10-25T11:10:27.562Z,4.13
2022-10-25T11:15:34.657Z,3.65
2022-10-25T11:20:50.045Z,5.40
2022-10-25T11:25:59.554Z,5.30
2022-10-25T11:31:14.174Z,5.90
2022-10-25T11:36:32.809Z,5.07
2022-10-25T11:41:46.343Z,5.22
2022-10-25T11:46:58.661Z,5.43
2022-10-25T11:52:22.076Z,4.82
2022-10-25T11:57:38.324Z,5.20
2022-10-25T12:02:57.522Z,4.45
2022-10-25T12:08:13.045Z,4.00
2022-10-25T12:13:20.449Z,5.00
2022-10-25T12:18:28.032Z,4.70
2022-10-25T12:23:37.681Z,4.03
2022-10-25T12:28:45.466Z,4.50
2022-10-25T12:33:54.937Z,4.28
2022-10-25T12:39:00.769Z,4.38
2022-10-25T12:44:18.133Z,4.18
2022-10-25T12:49:51.012Z,3.55
2022-10-25T12:55:33.351Z,4.05
2022-10-25T13:00:43.193Z,3.58
2022-10-25T13:06:27.972Z,3.22
2022-10-25T13:11:36.371Z,2.75
2022-10-25T13:16:39.305Z,3.00
2022-10-25T13:22:12.165Z,3.03
2022-10-25T13:27:21.754Z,3.05
2022-10-25T13:32:25.723Z,2.75
2022-10-25T13:37:46.044Z,2.67
2022-10-25T13:42:51.323Z,3.63
2022-10-25T13:47:56.418Z,3.15
2022-10-25T13:53:05.618Z,3.15
2022-10-25T13:58:43.803Z,3.15
2022-10-25T14:03:48.394Z,3.20
2022-10-25T14:08:59.763Z,2.90
2022-10-25T14:14:08.363Z,3.15
2022-10-25T14:19:16.578Z,2.88
2022-10-25T14:24:21.405Z,2.50
2022-10-25T14:29:27.062Z,3.03
2022-10-25T14:34:30.605Z,2.63
2022-10-25T14:39:35.137Z,2.42
2022-10-25T14:44:46.981Z,3.00
2022-10-25T14:49:49.975Z,3.03
2022-10-25T14:54:59.302Z,2.15
2022-10-25T15:00:05.249Z,1.80
2022-10-25T15:05:17.909Z,2.13
2022-10-25T15:10:37.889Z,2.10
2022-10-25T15:15:44.816Z,2.40
2022-10-25T15:20:50.874Z,1.80
2022-10-25T15:25:55.317Z,2.50
2022-10-25T15:31:03.451Z,2.40
2022-10-25T15:36:07.097Z,2.00
2022-10-25T15:41:11.483Z,2.00
2022-10-25T15:46:24.940Z,1.73
2022-10-25T15:51:30.946Z,2.28
2022-10-25T15:56:35.674Z,1.67
2022-10-25T16:01:39.523Z,1.80
2022-10-25T16:06:42.772Z,1.92
2022-10-25T16:11:54.328Z,1.65
2022-10-25T16:17:00.623Z,1.75
2022-10-25T16:22:03.626Z,2.05
2022-10-25T16:27:08.157Z,3.15
2022-10-25T16:32:11.061Z,6.75
2022-10-25T16:37:14.053Z,5.90
2022-10-25T16:42:32.330Z,2.10
2022-10-25T16:47:36.932Z,1.90
2022-10-25T16:52:40.137Z,2.00
2022-10-25T16:57:44.470Z,1.92
2022-10-25T17:02:47.812Z,2.88
2022-10-25T17:07:51.674Z,1.98
2022-10-25T17:13:03.359Z,1.40
2022-10-25T17:18:06.690Z,2.00
2022-10-25T17:23:09.819Z,1.60
2022-10-25T17:28:14.461Z,3.13
2022-10-25T17:33:17.596Z,2.63
2022-10-25T17:38:21.038Z,2.25
2022-10-25T17:43:25.601Z,3.50
2022-10-25T17:48:28.929Z,2.70
2022-10-25T17:53:32.265Z,2.10
2022-10-25T17:58:36.656Z,2.80
2022-10-25T18:03:40.365Z,2.47
2022-10-25T18:08:43.497Z,2.50
2022-10-25T18:13:47.733Z,2.73
2022-10-25T18:18:50.659Z,2.70
2022-10-25T18:23:55.587Z,2.27
2022-10-25T18:29:00.106Z,2.27
2022-10-25T18:34:04.822Z,2.37
2022-10-25T18:39:10.822Z,2.03
2022-10-25T18:44:15.488Z,2.13
2022-10-25T18:49:18.643Z,2.30
2022-10-25T18:54:21.617Z,2.50
2022-10-25T18:59:26.981Z,2.20
2022-10-25T19:04:30.176Z,2.10
2022-10-25T19:09:33.199Z,2.63
2022-10-25T19:14:37.491Z,2.13
2022-10-25T19:19:40.474Z,2.83
2022-10-25T19:24:43.641Z,2.60
2022-10-25T19:29:49.281Z,2.27
2022-10-25T19:34:52.310Z,2.43
2022-10-25T19:39:56.888Z,2.30
2022-10-25T19:45:03.752Z,2.40
2022-10-25T19:50:07.584Z,2.40
2022-10-25T19:55:10.745Z,2.20
2022-10-25T20:00:15.987Z,2.83
2022-10-25T20:05:18.869Z,2.30
2022-10-25T20:10:21.850Z,2.30
2022-10-25T20:15:26.236Z,2.40
2022-10-25T20:20:29.191Z,2.50
2022-10-25T20:25:32.052Z,2.50
2022-10-25T20:30:38.693Z,2.50
2022-10-25T20:35:44.535Z,2.83
2022-10-25T20:40:49.331Z,3.10
2022-10-25T20:45:53.876Z,2.27
2022-10-25T20:50:57.113Z,2.47
2022-10-25T20:56:00.476Z,2.77
2022-10-25T21:01:11.263Z,2.37
2022-10-25T21:06:15.775Z,2.80
2022-10-25T21:11:19.339Z,2.40
2022-10-25T21:16:35.070Z,2.37
2022-10-25T21:21:46.175Z,2.37
2022-10-25T21:26:50.010Z,2.17
2022-10-25T21:31:54.374Z,2.43
2022-10-25T21:36:57.643Z,2.47
2022-10-25T21:42:00.543Z,3.17
2022-10-25T21:47:04.941Z,2.87
2022-10-25T21:52:08.240Z,3.43
2022-10-25T21:57:11.227Z,2.77
2022-10-25T22:02:15.910Z,3.00
2022-10-25T22:07:19.026Z,2.90
2022-10-25T22:12:21.958Z,2.73
2022-10-25T22:17:26.362Z,3.73
2022-10-25T22:22:29.287Z,2.70
2022-10-25T22:27:32.238Z,3.07
2022-10-25T22:32:36.670Z,2.80
2022-10-25T22:37:39.614Z,3.43
2022-10-25T22:42:42.596Z,3.30
2022-10-25T22:47:47.204Z,3.17
2022-10-25T22:52:50.314Z,3.53
2022-10-25T22:57:54.444Z,3.40
2022-10-25T23:02:59.135Z,3.20
2022-10-25T23:08:02.125Z,3.20
2022-10-25T23:13:05.197Z,3.37
2022-10-25T23:18:09.463Z,3.53
2022-10-25T23:23:12.385Z,3.20
2022-10-25T23:28:15.593Z,3.90
2022-10-25T23:33:19.916Z,3.40
2022-10-25T23:38:23.201Z,3.67
2022-10-25T23:43:26.094Z,3.37
2022-10-25T23:48:30.924Z,3.77
2022-10-25T23:53:35.058Z,3.70
2022-10-25T23:58:38.942Z,3.43
